createdAt,value
2024-05-09T00:02:19.988Z,12.11
2024-05-09T00:04:49.677Z,12.08
2024-05-09T00:07:21.906Z,12.08
2024-05-09T00:09:51.518Z,12.04
2024-05-09T00:12:21.190Z,12.04
2024-05-09T00:14:50.802Z,12.01
2024-05-09T00:17:20.435Z,11.98
2024-05-09T00:19:49.997Z,11.90
2024-05-09T00:22:22.110Z,11.89
2024-05-09T00:24:51.588Z,11.87
2024-05-09T00:27:21.124Z,11.85
2024-05-09T00:29:50.569Z,11.85
2024-05-09T00:32:20.474Z,11.87
2024-05-09T00:34:50.114Z,11.82
2024-05-09T00:37:22.569Z,11.83
2024-05-09T00:39:52.014Z,11.83
2024-05-09T00:42:21.514Z,11.79
2024-05-09T00:44:51.129Z,11.80
2024-05-09T00:47:20.803Z,11.76
2024-05-09T00:49:51.390Z,11.76
2024-05-09T00:52:25.049Z,11.76
2024-05-09T00:54:54.629Z,11.80
2024-05-09T00:57:24.455Z,11.83
2024-05-09T00:59:54.663Z,11.79
2024-05-09T01:02:25.053Z,11.77
2024-05-09T01:04:54.811Z,11.77
2024-05-09T01:07:27.372Z,11.71
2024-05-09T01:09:56.975Z,11.63
2024-05-09T01:12:27.417Z,11.63
2024-05-09T01:14:56.977Z,11.65
2024-05-09T01:17:27.304Z,11.64
2024-05-09T01:19:56.986Z,11.62
2024-05-09T01:22:31.968Z,11.60
2024-05-09T01:25:04.096Z,11.58
2024-05-09T01:27:34.624Z,11.59
2024-05-09T01:30:09.590Z,11.61
2024-05-09T01:32:44.284Z,11.59
2024-05-09T01:35:13.905Z,11.50
2024-05-09T01:37:43.434Z,11.36
2024-05-09T01:40:22.015Z,11.23
2024-05-09T01:42:54.342Z,11.20
2024-05-09T01:45:24.239Z,11.15
2024-05-09T01:47:53.900Z,11.14
2024-05-09T01:50:35.724Z,11.19
2024-05-09T01:53:08.793Z,11.24
2024-05-09T01:55:41.205Z,11.27
2024-05-09T01:58:10.765Z,11.28
2024-05-09T02:00:42.665Z,11.32
2024-05-09T02:03:16.336Z,11.33
2024-05-09T02:05:48.392Z,11.36
2024-05-09T02:08:19.536Z,11.39
2024-05-09T02:10:52.282Z,11.36
2024-05-09T02:13:21.884Z,11.35
2024-05-09T02:15:52.460Z,11.39
2024-05-09T02:18:22.390Z,11.43
2024-05-09T02:20:52.351Z,11.47
2024-05-09T02:23:22.509Z,11.45
2024-05-09T02:25:54.768Z,11.39
2024-05-09T02:28:24.323Z,11.45
2024-05-09T02:30:53.794Z,11.46
2024-05-09T02:33:23.651Z,11.51
2024-05-09T02:35:53.385Z,11.52
2024-05-09T02:38:20.259Z,11.54
2024-05-09T02:40:49.775Z,11.55
2024-05-09T02:43:21.859Z,11.55
2024-05-09T02:45:48.667Z,11.53
2024-05-09T02:48:18.433Z,11.46
2024-05-09T02:50:45.435Z,11.42
2024-05-09T02:53:15.371Z,11.39
2024-05-09T02:55:42.917Z,11.33
2024-05-09T02:58:13.064Z,11.30
2024-05-09T03:00:43.175Z,11.27
2024-05-09T03:03:15.119Z,11.21
2024-05-09T03:05:42.901Z,11.18
2024-05-09T03:08:12.942Z,11.22
2024-05-09T03:10:40.117Z,11.25
2024-05-09T03:13:10.082Z,11.24
2024-05-09T03:15:37.215Z,11.26
2024-05-09T03:18:10.046Z,11.26
2024-05-09T03:20:38.073Z,11.25
2024-05-09T03:23:10.266Z,11.22
2024-05-09T03:25:37.446Z,11.16
2024-05-09T03:28:07.550Z,11.11
2024-05-09T03:30:41.164Z,11.05
2024-05-09T03:33:18.053Z,11.01
2024-05-09T03:35:47.050Z,10.99
2024-05-09T03:38:17.206Z,10.99
2024-05-09T03:40:48.347Z,10.99
2024-05-09T03:43:18.520Z,11.02
2024-05-09T03:45:49.393Z,11.03
2024-05-09T03:48:19.264Z,11.05
2024-05-09T03:50:49.037Z,11.03
2024-05-09T03:53:16.059Z,11.01
2024-05-09T03:55:45.688Z,10.94
2024-05-09T03:58:14.446Z,10.89
2024-05-09T04:00:44.675Z,10.83
2024-05-09T04:03:12.991Z,10.84
2024-05-09T04:05:45.986Z,10.85
2024-05-09T04:08:14.012Z,10.84
2024-05-09T04:10:44.183Z,10.89
2024-05-09T04:13:11.242Z,10.86
2024-05-09T04:15:40.907Z,10.80
2024-05-09T04:18:08.053Z,10.80
2024-05-09T04:20:40.314Z,10.80
2024-05-09T04:23:11.923Z,10.82
2024-05-09T04:25:45.084Z,10.78
2024-05-09T04:28:12.712Z,10.77
2024-05-09T04:30:42.846Z,10.76
2024-05-09T04:33:12.480Z,10.77
2024-05-09T04:35:44.974Z,10.81
2024-05-09T04:38:15.726Z,10.85
2024-05-09T04:40:45.804Z,10.85
2024-05-09T04:43:18.556Z,10.85
2024-05-09T04:45:48.462Z,10.91
2024-05-09T04:48:16.593Z,10.97
2024-05-09T04:50:46.463Z,11.02
2024-05-09T04:53:17.908Z,11.07
2024-05-09T04:55:48.070Z,11.09
2024-05-09T04:58:14.995Z,11.10
2024-05-09T05:00:44.551Z,11.13
2024-05-09T05:03:14.506Z,11.19
2024-05-09T05:05:46.524Z,11.24
2024-05-09T05:08:14.710Z,11.25
2024-05-09T05:10:48.448Z,11.27
2024-05-09T05:13:17.812Z,11.34
2024-05-09T05:15:48.524Z,11.38
2024-05-09T05:18:16.426Z,11.41
2024-05-09T05:20:46.403Z,11.43
2024-05-09T05:23:15.144Z,11.50
2024-05-09T05:25:48.429Z,11.54
2024-05-09T05:28:16.622Z,11.61
2024-05-09T05:30:46.582Z,11.67
2024-05-09T05:33:15.270Z,11.72
2024-05-09T05:35:45.242Z,11.79
2024-05-09T05:38:12.192Z,11.84
2024-05-09T05:40:41.788Z,11.88
2024-05-09T05:43:17.057Z,11.95
2024-05-09T05:45:46.814Z,12.01
2024-05-09T05:48:18.854Z,12.05
2024-05-09T05:50:46.216Z,12.09
2024-05-09T05:53:15.997Z,12.15
2024-05-09T05:55:42.968Z,12.22
2024-05-09T05:58:15.238Z,12.29
2024-05-09T06:00:42.781Z,12.34
2024-05-09T06:03:14.449Z,12.39
2024-05-09T06:05:43.666Z,12.43
2024-05-09T06:08:14.105Z,12.46
2024-05-09T06:10:41.965Z,12.52
2024-05-09T06:13:13.708Z,12.56
2024-05-09T06:15:44.978Z,12.64
2024-05-09T06:18:14.979Z,12.69
2024-05-09T06:20:43.715Z,12.75
2024-05-09T06:23:14.595Z,12.78
2024-05-09T06:25:42.419Z,12.81
2024-05-09T06:28:12.235Z,12.84
2024-05-09T06:30:42.320Z,12.92
2024-05-09T06:33:16.523Z,12.97
2024-05-09T06:35:44.406Z,13.04
2024-05-09T06:38:14.195Z,13.06
2024-05-09T06:40:43.683Z,13.12
2024-05-09T06:43:15.553Z,13.20
2024-05-09T06:45:44.294Z,13.23
2024-05-09T06:48:16.687Z,13.31
2024-05-09T06:50:46.507Z,13.37
2024-05-09T06:53:17.213Z,13.45
2024-05-09T06:55:44.384Z,13.53
2024-05-09T06:58:14.232Z,13.59
2024-05-09T07:00:42.177Z,13.65
2024-05-09T07:03:14.406Z,13.71
2024-05-09T07:05:48.052Z,13.77
2024-05-09T07:08:19.064Z,13.85
2024-05-09T07:10:46.788Z,13.90
2024-05-09T07:13:17.857Z,13.95
2024-05-09T07:15:45.057Z,14.03
2024-05-09T07:18:17.214Z,14.10
2024-05-09T07:20:49.540Z,14.16
2024-05-09T07:23:20.245Z,14.24
2024-05-09T07:25:47.453Z,14.30
2024-05-09T07:28:18.199Z,14.37
2024-05-09T07:30:46.188Z,14.47
2024-05-09T07:33:20.050Z,14.54
2024-05-09T07:35:51.236Z,14.64
2024-05-09T07:38:21.217Z,14.71
2024-05-09T07:40:48.452Z,14.80
2024-05-09T07:43:18.344Z,14.88
2024-05-09T07:45:52.098Z,15.02
2024-05-09T07:52:45.943Z,15.25
2024-05-09T07:53:51.048Z,15.41
2024-05-09T07:56:22.624Z,15.51
2024-05-09T07:58:55.860Z,15.64
2024-05-09T08:01:26.053Z,15.77
2024-05-09T08:03:57.372Z,15.98
2024-05-09T08:06:27.488Z,16.20
2024-05-09T08:09:05.109Z,16.67
2024-05-09T08:11:34.861Z,19.37
2024-05-09T08:14:04.414Z,21.74
2024-05-09T08:16:31.394Z,21.84
2024-05-09T08:19:01.231Z,21.18
2024-05-09T08:21:31.146Z,19.91
2024-05-09T08:24:00.980Z,19.79
2024-05-09T08:26:27.906Z,19.56
2024-05-09T08:28:57.428Z,19.57
2024-05-09T08:31:24.410Z,19.44
2024-05-09T08:33:56.522Z,19.40
2024-05-09T08:36:23.615Z,19.48
2024-05-09T08:38:55.805Z,19.47
2024-05-09T08:41:22.768Z,19.44
2024-05-09T08:43:52.514Z,19.43
2024-05-09T08:46:19.704Z,19.37
2024-05-09T08:48:52.379Z,19.35
2024-05-09T08:51:19.545Z,19.34
2024-05-09T08:53:51.978Z,19.38
2024-05-09T08:56:21.704Z,19.49
2024-05-09T08:58:52.451Z,19.60
2024-05-09T09:01:22.778Z,19.72
2024-05-09T09:03:54.739Z,19.93
2024-05-09T09:06:22.131Z,20.28
2024-05-09T09:08:51.794Z,20.50
2024-05-09T09:11:21.503Z,20.39
2024-05-09T09:13:51.362Z,20.29
2024-05-09T09:16:18.344Z,20.32
2024-05-09T09:18:49.719Z,20.42
2024-05-09T09:21:17.818Z,20.37
2024-05-09T09:23:47.488Z,20.54
2024-05-09T09:26:18.851Z,20.62
2024-05-09T09:28:48.756Z,20.50
2024-05-09T09:31:21.247Z,20.61
2024-05-09T09:33:48.694Z,20.61
2024-05-09T09:36:19.112Z,20.58
2024-05-09T09:38:47.796Z,20.54
2024-05-09T09:41:20.971Z,20.60
2024-05-09T09:43:51.678Z,20.76
2024-05-09T09:46:22.589Z,20.89
2024-05-09T09:48:49.774Z,21.02
2024-05-09T09:51:19.603Z,20.94
2024-05-09T09:53:49.171Z,20.85
2024-05-09T09:56:20.280Z,20.75
2024-05-09T09:58:51.197Z,20.92
2024-05-09T10:01:20.919Z,21.00
2024-05-09T10:03:48.210Z,21.22
2024-05-09T10:06:18.541Z,21.42
2024-05-09T10:08:47.319Z,21.41
2024-05-09T10:11:22.063Z,21.51
2024-05-09T10:13:53.808Z,21.65
2024-05-09T10:16:24.872Z,21.62
2024-05-09T10:18:52.116Z,21.55
2024-05-09T10:21:22.884Z,21.55
2024-05-09T10:23:58.071Z,21.65
2024-05-09T10:26:37.867Z,21.88
2024-05-09T10:29:14.562Z,21.91
2024-05-09T10:31:45.898Z,22.05
2024-05-09T10:34:20.860Z,22.03
2024-05-09T10:36:55.733Z,22.05
2024-05-09T10:39:25.114Z,22.12
2024-05-09T10:41:54.735Z,22.20
2024-05-09T10:44:24.412Z,22.32
2024-05-09T10:46:54.910Z,22.42
2024-05-09T10:49:22.603Z,22.46
2024-05-09T10:51:52.368Z,22.23
2024-05-09T10:54:19.495Z,22.12
2024-05-09T10:56:49.699Z,22.13
2024-05-09T10:59:16.611Z,22.27
2024-05-09T11:01:49.060Z,22.47
2024-05-09T11:04:16.704Z,22.68
2024-05-09T11:06:48.964Z,22.85
2024-05-09T11:09:16.282Z,22.93
2024-05-09T11:11:45.998Z,22.99
2024-05-09T11:14:13.645Z,23.08
2024-05-09T11:16:43.415Z,23.19
2024-05-09T11:19:15.093Z,23.26
2024-05-09T11:21:45.077Z,23.12
2024-05-09T11:24:12.300Z,23.28
2024-05-09T11:26:41.907Z,23.38
2024-05-09T11:29:08.841Z,23.52
2024-05-09T11:31:48.375Z,23.58
2024-05-09T11:34:18.392Z,23.69
2024-05-09T11:36:48.317Z,23.76
2024-05-09T11:39:15.351Z,23.84
2024-05-09T11:41:44.913Z,23.81
2024-05-09T11:44:13.139Z,23.95
2024-05-09T11:46:43.909Z,24.07
2024-05-09T11:49:13.663Z,24.11
2024-05-09T11:51:43.388Z,24.22
2024-05-09T11:54:12.996Z,24.33
2024-05-09T11:56:39.978Z,24.47
2024-05-09T11:59:09.523Z,24.55
2024-05-09T12:01:36.582Z,24.43
2024-05-09T12:04:06.776Z,24.40
2024-05-09T12:06:34.043Z,24.55
2024-05-09T12:09:06.914Z,24.59
2024-05-09T12:11:34.250Z,24.66
2024-05-09T12:14:04.046Z,24.76
2024-05-09T12:16:31.567Z,24.85
2024-05-09T12:19:01.646Z,24.98
2024-05-09T12:21:28.667Z,25.07
2024-05-09T12:23:58.114Z,24.89
2024-05-09T12:26:28.451Z,24.86
2024-05-09T12:28:58.000Z,24.92
2024-05-09T12:31:24.966Z,24.90
2024-05-09T12:33:54.727Z,24.76
2024-05-09T12:36:21.824Z,24.89
2024-05-09T12:38:51.722Z,24.92
2024-05-09T12:41:18.689Z,25.04
2024-05-09T12:43:51.007Z,25.02
2024-05-09T12:46:20.453Z,25.13
2024-05-09T12:48:50.299Z,25.20
2024-05-09T12:51:17.455Z,25.05
2024-05-09T12:53:47.195Z,25.01
2024-05-09T12:56:14.163Z,25.00
2024-05-09T12:58:43.744Z,25.02
2024-05-09T13:01:13.342Z,25.08
2024-05-09T13:03:43.232Z,25.13
2024-05-09T13:06:10.470Z,25.22
2024-05-09T13:08:40.097Z,25.29
2024-05-09T13:11:07.189Z,25.29
2024-05-09T13:13:36.778Z,25.41
2024-05-09T13:16:04.586Z,25.49
2024-05-09T13:18:37.150Z,25.49
2024-05-09T13:21:04.631Z,25.46
2024-05-09T13:23:34.122Z,25.41
2024-05-09T13:26:00.985Z,25.45
2024-05-09T13:28:32.311Z,25.53
2024-05-09T13:30:59.485Z,25.43
2024-05-09T13:33:29.172Z,25.22
2024-05-09T13:35:58.987Z,25.44
2024-05-09T13:38:28.778Z,25.56
2024-05-09T13:40:55.647Z,25.51
2024-05-09T13:43:25.485Z,25.51
2024-05-09T13:45:55.222Z,25.47
2024-05-09T13:48:24.968Z,25.34
2024-05-09T13:50:52.292Z,25.42
2024-05-09T13:53:25.238Z,25.50
2024-05-09T13:55:52.950Z,25.52
2024-05-09T13:58:24.732Z,25.64
2024-05-09T14:00:52.372Z,25.71
2024-05-09T14:03:22.198Z,25.87
2024-05-09T14:05:50.545Z,25.81
2024-05-09T14:08:22.344Z,25.86
2024-05-09T14:10:53.755Z,25.84
2024-05-09T14:13:23.505Z,25.86
2024-05-09T14:15:50.724Z,25.86
2024-05-09T14:18:20.702Z,25.85
2024-05-09T14:20:47.628Z,25.71
2024-05-09T14:23:17.267Z,25.61
2024-05-09T14:25:48.176Z,25.47
2024-05-09T14:28:22.586Z,25.54
2024-05-09T14:30:49.700Z,25.56
2024-05-09T14:33:25.359Z,25.62
2024-05-09T14:35:52.733Z,25.65
2024-05-09T14:38:22.591Z,25.58
2024-05-09T14:40:50.741Z,25.45
2024-05-09T14:43:23.049Z,25.13
2024-05-09T14:45:50.138Z,25.13
2024-05-09T14:48:20.203Z,25.02
2024-05-09T14:50:48.023Z,24.98
2024-05-09T14:53:17.559Z,24.97
2024-05-09T14:55:44.684Z,25.00
2024-05-09T14:58:14.720Z,24.78
2024-05-09T15:00:50.101Z,24.63
2024-05-09T15:03:22.200Z,24.56
2024-05-09T15:05:50.320Z,24.37
2024-05-09T15:08:20.738Z,24.30
2024-05-09T15:10:49.861Z,24.25
2024-05-09T15:13:20.205Z,24.12
2024-05-09T15:15:50.212Z,24.15
2024-05-09T15:18:20.557Z,24.16
2024-05-09T15:20:49.027Z,23.99
2024-05-09T15:23:18.660Z,23.91
2024-05-09T15:25:45.592Z,23.85
2024-05-09T15:28:15.595Z,23.77
2024-05-09T15:30:46.169Z,23.72
2024-05-09T15:33:19.225Z,23.65
2024-05-09T15:35:47.103Z,23.63
2024-05-09T15:38:18.453Z,23.58
2024-05-09T15:40:45.874Z,23.50
2024-05-09T15:43:16.693Z,23.44
2024-05-09T15:45:44.070Z,23.37
2024-05-09T15:48:14.948Z,23.34
2024-05-09T15:50:45.145Z,23.31
2024-05-09T15:53:15.507Z,23.22
2024-05-09T15:55:43.042Z,23.15
2024-05-09T15:58:13.253Z,23.12
2024-05-09T16:00:43.529Z,23.08
2024-05-09T16:03:15.442Z,23.02
2024-05-09T16:05:46.926Z,22.93
2024-05-09T16:08:18.170Z,22.89
2024-05-09T16:10:47.337Z,22.86
2024-05-09T16:13:18.032Z,22.84
2024-05-09T16:15:45.382Z,22.70
2024-05-09T16:18:15.525Z,22.67
2024-05-09T16:20:48.256Z,22.65
2024-05-09T16:23:19.488Z,22.65
2024-05-09T16:25:48.019Z,22.63
2024-05-09T16:28:18.268Z,22.56
2024-05-09T16:30:45.356Z,22.54
2024-05-09T16:33:15.211Z,22.54
2024-05-09T16:35:42.334Z,22.50
2024-05-09T16:38:14.966Z,22.44
2024-05-09T16:40:42.189Z,22.41
2024-05-09T16:43:12.625Z,22.40
2024-05-09T16:45:41.595Z,22.38
2024-05-09T16:48:12.400Z,22.35
2024-05-09T16:50:39.495Z,22.33
2024-05-09T16:53:09.402Z,22.32
2024-05-09T16:55:40.304Z,22.31
2024-05-09T16:58:12.565Z,22.31
2024-05-09T17:00:42.847Z,22.31
2024-05-09T17:03:16.213Z,22.29
2024-05-09T17:05:45.985Z,22.26
2024-05-09T17:08:18.366Z,22.19
2024-05-09T17:10:49.525Z,22.18
2024-05-09T17:13:20.099Z,22.15
2024-05-09T17:15:54.560Z,22.13
2024-05-09T17:18:21.960Z,22.12
2024-05-09T17:20:52.574Z,22.09
2024-05-09T17:23:19.519Z,22.06
2024-05-09T17:25:51.743Z,22.01
2024-05-09T17:28:19.163Z,21.96
2024-05-09T17:30:49.234Z,21.97
2024-05-09T17:33:16.325Z,21.95
2024-05-09T17:35:49.751Z,21.93
2024-05-09T17:38:16.711Z,21.91
2024-05-09T17:40:46.276Z,21.84
2024-05-09T17:43:15.863Z,21.81
2024-05-09T17:45:45.721Z,21.78
2024-05-09T17:48:13.122Z,21.72
2024-05-09T17:50:43.335Z,21.63
2024-05-09T17:53:10.958Z,21.59
2024-05-09T17:55:41.220Z,21.57
2024-05-09T17:58:09.540Z,21.51
2024-05-09T18:00:42.753Z,21.44
2024-05-09T18:03:12.131Z,21.39
2024-05-09T18:05:44.502Z,21.34
2024-05-09T18:08:12.212Z,21.29
2024-05-09T18:10:43.162Z,21.24
2024-05-09T18:13:11.296Z,21.20
2024-05-09T18:15:45.181Z,21.14
2024-05-09T18:18:13.391Z,21.11
2024-05-09T18:20:45.673Z,21.06
2024-05-09T18:23:16.429Z,20.97
2024-05-09T18:25:48.199Z,20.90
2024-05-09T18:28:16.807Z,20.82
2024-05-09T18:30:49.693Z,20.73
2024-05-09T18:33:17.135Z,20.68
2024-05-09T18:35:48.988Z,20.61
2024-05-09T18:38:16.213Z,20.53
2024-05-09T18:40:48.970Z,20.44
2024-05-09T18:43:16.976Z,20.41
2024-05-09T18:45:49.469Z,20.36
2024-05-09T18:48:16.624Z,20.32
2024-05-09T18:50:46.520Z,20.27
2024-05-09T18:53:14.665Z,20.16
2024-05-09T18:55:44.889Z,20.13
2024-05-09T18:58:17.106Z,20.04
2024-05-09T19:00:49.802Z,20.01
2024-05-09T19:03:21.044Z,19.98
2024-05-09T19:05:48.902Z,19.94
2024-05-09T19:08:18.663Z,19.90
2024-05-09T19:10:46.047Z,19.78
2024-05-09T19:13:16.561Z,19.69
2024-05-09T19:15:46.257Z,19.63
2024-05-09T19:18:17.226Z,19.56
2024-05-09T19:20:44.431Z,19.47
2024-05-09T19:23:14.195Z,19.38
2024-05-09T19:25:41.117Z,19.30
2024-05-09T19:28:10.832Z,19.24
2024-05-09T19:30:41.318Z,19.20
2024-05-09T19:33:15.153Z,19.18
2024-05-09T19:35:42.718Z,19.14
2024-05-09T19:38:12.589Z,19.08
2024-05-09T19:40:40.110Z,19.04
2024-05-09T19:43:11.142Z,18.99
2024-05-09T19:45:38.357Z,19.02
2024-05-09T19:48:09.077Z,18.97
2024-05-09T19:50:44.138Z,18.95
2024-05-09T19:53:12.560Z,18.91
2024-05-09T19:55:42.664Z,18.89
2024-05-09T19:58:10.939Z,18.85
2024-05-09T20:00:43.166Z,18.84
2024-05-09T20:03:11.860Z,18.83
2024-05-09T20:05:45.501Z,18.78
2024-05-09T20:08:13.226Z,18.74
2024-05-09T20:10:42.947Z,18.70
2024-05-09T20:13:10.089Z,18.65
2024-05-09T20:15:40.862Z,18.57
2024-05-09T20:18:08.332Z,18.51
2024-05-09T20:20:42.534Z,18.44
2024-05-09T20:23:14.369Z,18.42
2024-05-09T20:25:44.942Z,18.35
2024-05-09T20:28:11.960Z,18.31
2024-05-09T20:30:41.596Z,18.25
2024-05-09T20:33:09.759Z,18.24
2024-05-09T20:35:39.816Z,18.18
2024-05-09T20:38:07.054Z,18.15
2024-05-09T20:40:39.972Z,18.11
2024-05-09T20:43:08.771Z,18.05
2024-05-09T20:45:39.252Z,17.99
2024-05-09T20:48:08.334Z,17.95
2024-05-09T20:50:41.287Z,17.92
2024-05-09T20:53:14.123Z,17.88
2024-05-09T20:55:47.182Z,17.77
2024-05-09T20:58:14.363Z,17.63
2024-05-09T21:00:45.990Z,17.54
2024-05-09T21:03:17.825Z,17.43
2024-05-09T21:05:48.849Z,17.26
2024-05-09T21:08:15.948Z,17.24
2024-05-09T21:10:48.271Z,17.20
2024-05-09T21:13:15.418Z,17.18
2024-05-09T21:15:45.027Z,17.08
2024-05-09T21:18:12.152Z,17.05
2024-05-09T21:20:41.715Z,17.02
2024-05-09T21:23:09.082Z,16.99
2024-05-09T21:25:39.298Z,16.86
2024-05-09T21:28:09.455Z,16.80
2024-05-09T21:30:42.539Z,16.70
2024-05-09T21:33:12.540Z,16.58
2024-05-09T21:35:44.931Z,16.48
2024-05-09T21:38:13.934Z,16.41
2024-05-09T21:40:44.770Z,16.37
2024-05-09T21:43:14.958Z,16.39
2024-05-09T21:45:44.877Z,16.42
2024-05-09T21:48:13.243Z,16.31
2024-05-09T21:50:43.031Z,16.24
2024-05-09T21:53:13.801Z,16.23
2024-05-09T21:55:44.070Z,16.22
2024-05-09T21:58:14.787Z,16.13
2024-05-09T22:00:46.480Z,16.05
2024-05-09T22:03:14.170Z,16.01
2024-05-09T22:05:45.041Z,15.99
2024-05-09T22:08:12.558Z,15.90
2024-05-09T22:10:42.230Z,15.83
2024-05-09T22:13:09.402Z,15.70
2024-05-09T22:15:42.365Z,15.61
2024-05-09T22:18:10.577Z,15.60
2024-05-09T22:20:44.844Z,15.59
2024-05-09T22:23:13.411Z,15.50
2024-05-09T22:25:43.289Z,15.49
2024-05-09T22:28:11.021Z,15.37
2024-05-09T22:30:45.672Z,15.38
2024-05-09T22:33:13.040Z,15.41
2024-05-09T22:35:43.054Z,15.33
2024-05-09T22:38:10.170Z,15.33
2024-05-09T22:40:47.319Z,15.34
2024-05-09T22:43:21.760Z,15.25
2024-05-09T22:45:57.129Z,15.19
2024-05-09T22:48:25.113Z,15.08
2024-05-09T22:50:56.045Z,15.03
2024-05-09T22:53:23.965Z,15.00
2024-05-09T22:55:53.613Z,15.00
2024-05-09T22:58:20.929Z,14.93
2024-05-09T23:00:50.841Z,14.96
2024-05-09T23:03:21.991Z,14.92
2024-05-09T23:05:52.255Z,14.85
2024-05-09T23:08:19.178Z,14.82
2024-05-09T23:10:48.842Z,14.82
2024-05-09T23:13:16.153Z,14.79
2024-05-09T23:15:45.870Z,14.80
2024-05-09T23:18:13.096Z,14.71
2024-05-09T23:20:45.325Z,14.66
2024-05-09T23:23:12.481Z,14.65
2024-05-09T23:25:43.652Z,14.55
2024-05-09T23:28:11.049Z,14.54
2024-05-09T23:30:41.812Z,14.51
2024-05-09T23:33:11.009Z,14.51
2024-05-09T23:35:40.918Z,14.44
2024-05-09T23:38:10.710Z,14.41
2024-05-09T23:40:41.608Z,14.38
2024-05-09T23:43:10.353Z,14.41
2024-05-09T23:45:40.948Z,14.43
2024-05-09T23:48:08.966Z,14.34
2024-05-09T23:50:40.374Z,14.23
2024-05-09T23:53:11.110Z,14.16
2024-05-09T23:55:40.972Z,14.14
2024-05-09T23:58:08.456Z,14.15
